sensor_id;sensor_type;location;lat;lon;timestamp;temperature;humidity
52107;DHT22;38105;52.968;5.974;2023-01-28T00:02:03;2.40;99.90
52107;DHT22;38105;52.968;5.974;2023-01-28T00:04:29;2.40;99.90
52107;DHT22;38105;52.968;5.974;2023-01-28T00:06:54;2.40;99.90
52107;DHT22;38105;52.968;5.974;2023-01-28T00:09:20;2.40;99.90
52107;DHT22;38105;52.968;5.974;2023-01-28T00:11:46;2.40;99.90
52107;DHT22;38105;52.968;5.974;2023-01-28T00:14:11;2.40;99.90
52107;DHT22;38105;52.968;5.974;2023-01-28T00:16:37;2.40;99.90
52107;DHT22;38105;52.968;5.974;2023-01-28T00:19:03;2.40;99.90
52107;DHT22;38105;52.968;5.974;2023-01-28T00:21:29;2.30;99.90
52107;DHT22;38105;52.968;5.974;2023-01-28T00:23:55;2.40;99.90
52107;DHT22;38105;52.968;5.974;2023-01-28T00:26:22;2.30;99.90
52107;DHT22;38105;52.968;5.974;2023-01-28T00:28:49;2.40;99.90
52107;DHT22;38105;52.968;5.974;2023-01-28T00:31:21;2.30;99.90
52107;DHT22;38105;52.968;5.974;2023-01-28T00:33:48;2.30;99.90
52107;DHT22;38105;52.968;5.974;2023-01-28T00:36:15;2.30;99.90
52107;DHT22;38105;52.968;5.974;2023-01-28T00:38:41;2.30;99.90
52107;DHT22;38105;52.968;5.974;2023-01-28T00:41:12;2.30;99.90
52107;DHT22;38105;52.968;5.974;2023-01-28T00:43:38;2.30;99.90
52107;DHT22;38105;52.968;5.974;2023-01-28T00:46:05;2.30;99.90
52107;DHT22;38105;52.968;5.974;2023-01-28T00:48:32;2.30;99.90
52107;DHT22;38105;52.968;5.974;2023-01-28T00:50:58;2.30;99.90
52107;DHT22;38105;52.968;5.974;2023-01-28T00:53:24;2.30;99.90
52107;DHT22;38105;52.968;5.974;2023-01-28T00:55:50;2.30;99.90
52107;DHT22;38105;52.968;5.974;2023-01-28T00:58:16;2.30;99.90
52107;DHT22;38105;52.968;5.974;2023-01-28T01:00:41;2.30;99.90
52107;DHT22;38105;52.968;5.974;2023-01-28T01:03:07;2.30;99.90
52107;DHT22;38105;52.968;5.974;2023-01-28T01:05:33;2.30;99.90
52107;DHT22;38105;52.968;5.974;2023-01-28T01:07:59;2.20;99.90
52107;DHT22;38105;52.968;5.974;2023-01-28T01:10:25;2.20;99.90
52107;DHT22;38105;52.968;5.974;2023-01-28T01:12:50;2.30;99.90
52107;DHT22;38105;52.968;5.974;2023-01-28T01:15:17;2.30;99.90
52107;DHT22;38105;52.968;5.974;2023-01-28T01:17:46;2.30;99.90
52107;DHT22;38105;52.968;5.974;2023-01-28T01:20:21;2.30;99.90
52107;DHT22;38105;52.968;5.974;2023-01-28T01:22:47;2.30;99.90
52107;DHT22;38105;52.968;5.974;2023-01-28T01:25:14;2.30;99.90
52107;DHT22;38105;52.968;5.974;2023-01-28T01:27:40;2.30;99.90
52107;DHT22;38105;52.968;5.974;2023-01-28T01:30:07;2.30;99.90
52107;DHT22;38105;52.968;5.974;2023-01-28T01:32:34;2.20;99.90
52107;DHT22;38105;52.968;5.974;2023-01-28T01:35:00;2.20;99.90
52107;DHT22;38105;52.968;5.974;2023-01-28T01:37:26;2.10;99.90
52107;DHT22;38105;52.968;5.974;2023-01-28T01:39:52;2.20;99.90
52107;DHT22;38105;52.968;5.974;2023-01-28T01:42:18;2.20;99.90
52107;DHT22;38105;52.968;5.974;2023-01-28T01:45:11;2.20;99.90
52107;DHT22;38105;52.968;5.974;2023-01-28T01:50:33;2.20;99.90
52107;DHT22;38105;52.968;5.974;2023-01-28T01:53:12;2.20;99.90
52107;DHT22;38105;52.968;5.974;2023-01-28T01:55:40;2.10;99.90
52107;DHT22;38105;52.968;5.974;2023-01-28T01:58:10;2.10;99.90
52107;DHT22;38105;52.968;5.974;2023-01-28T02:00:38;2.20;99.90
52107;DHT22;38105;52.968;5.974;2023-01-28T02:03:04;2.10;99.90
52107;DHT22;38105;52.968;5.974;2023-01-28T02:05:30;2.10;99.90
52107;DHT22;38105;52.968;5.974;2023-01-28T02:07:57;2.10;99.90
52107;DHT22;38105;52.968;5.974;2023-01-28T02:10:43;2.10;99.90
52107;DHT22;38105;52.968;5.974;2023-01-28T02:13:09;2.10;99.90
52107;DHT22;38105;52.968;5.974;2023-01-28T02:15:35;2.10;99.90
52107;DHT22;38105;52.968;5.974;2023-01-28T02:18:00;2.20;99.90
52107;DHT22;38105;52.968;5.974;2023-01-28T02:23:36;2.10;99.90
52107;DHT22;38105;52.968;5.974;2023-01-28T02:29:02;2.10;99.90
52107;DHT22;38105;52.968;5.974;2023-01-28T02:31:38;2.10;99.90
52107;DHT22;38105;52.968;5.974;2023-01-28T02:34:26;2.20;99.90
52107;DHT22;38105;52.968;5.974;2023-01-28T02:37:04;2.10;99.90
52107;DHT22;38105;52.968;5.974;2023-01-28T02:39:34;2.20;99.90
52107;DHT22;38105;52.968;5.974;2023-01-28T02:42:08;2.20;99.90
52107;DHT22;38105;52.968;5.974;2023-01-28T02:44:35;2.20;99.90
52107;DHT22;38105;52.968;5.974;2023-01-28T02:47:00;2.20;99.90
52107;DHT22;38105;52.968;5.974;2023-01-28T02:49:49;2.20;99.90
52107;DHT22;38105;52.968;5.974;2023-01-28T03:03:32;2.20;99.90
52107;DHT22;38105;52.968;5.974;2023-01-28T03:06:03;2.20;99.90
52107;DHT22;38105;52.968;5.974;2023-01-28T03:08:51;2.20;99.90
52107;DHT22;38105;52.968;5.974;2023-01-28T03:11:45;2.20;99.90
52107;DHT22;38105;52.968;5.974;2023-01-28T03:14:32;2.20;99.90
52107;DHT22;38105;52.968;5.974;2023-01-28T03:17:38;2.20;99.90
52107;DHT22;38105;52.968;5.974;2023-01-28T03:20:27;2.20;99.90
52107;DHT22;38105;52.968;5.974;2023-01-28T03:23:17;2.20;99.90
52107;DHT22;38105;52.968;5.974;2023-01-28T03:26:07;2.10;99.90
52107;DHT22;38105;52.968;5.974;2023-01-28T03:28:54;2.10;99.90
52107;DHT22;38105;52.968;5.974;2023-01-28T03:31:44;2.10;99.90
52107;DHT22;38105;52.968;5.974;2023-01-28T03:34:28;2.10;99.90
52107;DHT22;38105;52.968;5.974;2023-01-28T03:37:13;2.10;99.90
52107;DHT22;38105;52.968;5.974;2023-01-28T03:39:39;2.10;99.90
52107;DHT22;38105;52.968;5.974;2023-01-28T03:42:11;2.10;99.90
52107;DHT22;38105;52.968;5.974;2023-01-28T03:44:37;2.10;99.90
52107;DHT22;38105;52.968;5.974;2023-01-28T03:47:23;2.10;99.90
52107;DHT22;38105;52.968;5.974;2023-01-28T03:49:51;2.10;99.90
52107;DHT22;38105;52.968;5.974;2023-01-28T03:52:19;2.10;99.90
52107;DHT22;38105;52.968;5.974;2023-01-28T03:54:46;2.10;99.90
52107;DHT22;38105;52.968;5.974;2023-01-28T03:57:15;2.10;99.90
52107;DHT22;38105;52.968;5.974;2023-01-28T03:59:41;2.10;99.90
52107;DHT22;38105;52.968;5.974;2023-01-28T04:02:08;2.20;99.90
52107;DHT22;38105;52.968;5.974;2023-01-28T04:04:39;2.20;99.90
52107;DHT22;38105;52.968;5.974;2023-01-28T04:07:06;2.10;99.90
52107;DHT22;38105;52.968;5.974;2023-01-28T04:09:34;2.10;99.90
52107;DHT22;38105;52.968;5.974;2023-01-28T04:12:00;2.20;99.90
52107;DHT22;38105;52.968;5.974;2023-01-28T04:14:26;2.10;99.90
52107;DHT22;38105;52.968;5.974;2023-01-28T04:16:51;2.10;99.90
52107;DHT22;38105;52.968;5.974;2023-01-28T04:19:19;2.10;99.90
52107;DHT22;38105;52.968;5.974;2023-01-28T04:21:45;2.20;99.90
52107;DHT22;38105;52.968;5.974;2023-01-28T04:24:12;2.10;99.90
52107;DHT22;38105;52.968;5.974;2023-01-28T04:26:38;2.10;99.90
52107;DHT22;38105;52.968;5.974;2023-01-28T04:29:04;2.10;99.90
52107;DHT22;38105;52.968;5.974;2023-01-28T04:31:30;2.10;99.90
52107;DHT22;38105;52.968;5.974;2023-01-28T04:33:56;2.10;99.90
52107;DHT22;38105;52.968;5.974;2023-01-28T04:36:22;2.10;99.90
52107;DHT22;38105;52.968;5.974;2023-01-28T04:38:48;2.10;99.90
52107;DHT22;38105;52.968;5.974;2023-01-28T04:41:14;2.10;99.90
52107;DHT22;38105;52.968;5.974;2023-01-28T04:43:39;2.10;99.90
52107;DHT22;38105;52.968;5.974;2023-01-28T04:46:05;2.10;99.90
52107;DHT22;38105;52.968;5.974;2023-01-28T04:48:31;2.10;99.90
52107;DHT22;38105;52.968;5.974;2023-01-28T04:50:57;2.00;99.90
52107;DHT22;38105;52.968;5.974;2023-01-28T04:53:23;1.90;99.90
52107;DHT22;38105;52.968;5.974;2023-01-28T04:55:48;1.90;99.90
52107;DHT22;38105;52.968;5.974;2023-01-28T04:58:14;2.00;99.90
52107;DHT22;38105;52.968;5.974;2023-01-28T05:00:39;2.00;99.90
52107;DHT22;38105;52.968;5.974;2023-01-28T05:03:05;2.00;99.90
52107;DHT22;38105;52.968;5.974;2023-01-28T05:05:31;1.90;99.90
52107;DHT22;38105;52.968;5.974;2023-01-28T05:07:57;2.00;99.90
52107;DHT22;38105;52.968;5.974;2023-01-28T05:10:25;2.00;99.90
52107;DHT22;38105;52.968;5.974;2023-01-28T05:12:50;2.00;99.90
52107;DHT22;38105;52.968;5.974;2023-01-28T05:15:17;1.90;99.90
52107;DHT22;38105;52.968;5.974;2023-01-28T05:17:43;1.90;99.90
52107;DHT22;38105;52.968;5.974;2023-01-28T05:20:11;1.80;99.90
52107;DHT22;38105;52.968;5.974;2023-01-28T05:22:37;1.80;99.90
52107;DHT22;38105;52.968;5.974;2023-01-28T05:25:04;1.80;99.90
52107;DHT22;38105;52.968;5.974;2023-01-28T05:27:30;1.70;99.90
52107;DHT22;38105;52.968;5.974;2023-01-28T05:29:57;1.70;99.90
52107;DHT22;38105;52.968;5.974;2023-01-28T05:32:23;1.60;99.90
52107;DHT22;38105;52.968;5.974;2023-01-28T05:34:49;1.60;99.90
52107;DHT22;38105;52.968;5.974;2023-01-28T05:37:15;1.60;99.90
52107;DHT22;38105;52.968;5.974;2023-01-28T05:39:40;1.60;99.90
52107;DHT22;38105;52.968;5.974;2023-01-28T05:42:06;1.60;99.90
52107;DHT22;38105;52.968;5.974;2023-01-28T05:44:32;1.70;99.90
52107;DHT22;38105;52.968;5.974;2023-01-28T05:46:57;1.70;99.90
52107;DHT22;38105;52.968;5.974;2023-01-28T05:49:23;1.70;99.90
52107;DHT22;38105;52.968;5.974;2023-01-28T05:51:51;1.70;99.90
52107;DHT22;38105;52.968;5.974;2023-01-28T05:54:17;1.80;99.90
52107;DHT22;38105;52.968;5.974;2023-01-28T05:56:42;1.80;99.90
52107;DHT22;38105;52.968;5.974;2023-01-28T05:59:10;1.70;99.90
52107;DHT22;38105;52.968;5.974;2023-01-28T06:01:36;1.70;99.90
52107;DHT22;38105;52.968;5.974;2023-01-28T06:04:02;1.70;99.90
52107;DHT22;38105;52.968;5.974;2023-01-28T06:06:28;1.80;99.90
52107;DHT22;38105;52.968;5.974;2023-01-28T06:08:54;1.80;99.90
52107;DHT22;38105;52.968;5.974;2023-01-28T06:11:19;1.80;99.90
52107;DHT22;38105;52.968;5.974;2023-01-28T06:13:45;1.80;99.90
52107;DHT22;38105;52.968;5.974;2023-01-28T06:16:11;1.70;99.90
52107;DHT22;38105;52.968;5.974;2023-01-28T06:18:36;1.80;99.90
52107;DHT22;38105;52.968;5.974;2023-01-28T06:21:02;1.80;99.90
52107;DHT22;38105;52.968;5.974;2023-01-28T06:23:28;1.80;99.90
52107;DHT22;38105;52.968;5.974;2023-01-28T06:25:54;1.70;99.90
52107;DHT22;38105;52.968;5.974;2023-01-28T06:28:20;1.80;99.90
52107;DHT22;38105;52.968;5.974;2023-01-28T06:30:49;1.80;99.90
52107;DHT22;38105;52.968;5.974;2023-01-28T06:33:16;1.70;99.90
52107;DHT22;38105;52.968;5.974;2023-01-28T06:35:42;1.70;99.90
52107;DHT22;38105;52.968;5.974;2023-01-28T06:38:09;1.60;99.90
52107;DHT22;38105;52.968;5.974;2023-01-28T06:40:35;1.60;99.90
52107;DHT22;38105;52.968;5.974;2023-01-28T06:43:00;1.50;99.90
52107;DHT22;38105;52.968;5.974;2023-01-28T06:45:26;1.50;99.90
52107;DHT22;38105;52.968;5.974;2023-01-28T06:47:52;1.50;99.90
52107;DHT22;38105;52.968;5.974;2023-01-28T06:50:17;1.40;99.90
52107;DHT22;38105;52.968;5.974;2023-01-28T06:52:43;1.40;99.90
52107;DHT22;38105;52.968;5.974;2023-01-28T06:55:09;1.40;99.90
52107;DHT22;38105;52.968;5.974;2023-01-28T06:57:37;1.40;99.90
52107;DHT22;38105;52.968;5.974;2023-01-28T07:00:05;1.40;99.90
52107;DHT22;38105;52.968;5.974;2023-01-28T07:02:31;1.40;99.90
52107;DHT22;38105;52.968;5.974;2023-01-28T07:04:57;1.40;99.90
52107;DHT22;38105;52.968;5.974;2023-01-28T07:07:22;1.40;99.90
52107;DHT22;38105;52.968;5.974;2023-01-28T07:09:48;1.50;99.90
52107;DHT22;38105;52.968;5.974;2023-01-28T07:12:13;1.40;99.90
52107;DHT22;38105;52.968;5.974;2023-01-28T07:14:40;1.40;99.90
52107;DHT22;38105;52.968;5.974;2023-01-28T07:17:05;1.50;99.90
52107;DHT22;38105;52.968;5.974;2023-01-28T07:19:31;1.40;99.90
52107;DHT22;38105;52.968;5.974;2023-01-28T07:21:56;1.40;99.90
52107;DHT22;38105;52.968;5.974;2023-01-28T07:24:25;1.50;99.90
52107;DHT22;38105;52.968;5.974;2023-01-28T07:26:51;1.50;99.90
52107;DHT22;38105;52.968;5.974;2023-01-28T07:29:17;1.40;99.90
52107;DHT22;38105;52.968;5.974;2023-01-28T07:31:42;1.30;99.90
52107;DHT22;38105;52.968;5.974;2023-01-28T07:34:08;1.30;99.90
52107;DHT22;38105;52.968;5.974;2023-01-28T07:36:34;1.30;99.90
52107;DHT22;38105;52.968;5.974;2023-01-28T07:38:59;1.30;99.90
52107;DHT22;38105;52.968;5.974;2023-01-28T07:41:25;1.30;99.90
52107;DHT22;38105;52.968;5.974;2023-01-28T07:43:52;1.20;99.90
52107;DHT22;38105;52.968;5.974;2023-01-28T07:46:18;1.20;99.90
52107;DHT22;38105;52.968;5.974;2023-01-28T07:48:43;1.10;99.90
52107;DHT22;38105;52.968;5.974;2023-01-28T07:51:10;1.00;99.90
52107;DHT22;38105;52.968;5.974;2023-01-28T07:53:36;0.90;99.90
52107;DHT22;38105;52.968;5.974;2023-01-28T07:56:02;0.80;99.90
52107;DHT22;38105;52.968;5.974;2023-01-28T07:58:29;0.80;99.90
52107;DHT22;38105;52.968;5.974;2023-01-28T08:00:57;0.70;99.90
52107;DHT22;38105;52.968;5.974;2023-01-28T08:03:23;0.70;99.90
52107;DHT22;38105;52.968;5.974;2023-01-28T08:05:51;0.80;99.90
52107;DHT22;38105;52.968;5.974;2023-01-28T08:08:18;0.80;99.90
52107;DHT22;38105;52.968;5.974;2023-01-28T08:10:44;0.80;99.90
52107;DHT22;38105;52.968;5.974;2023-01-28T08:13:11;0.90;99.90
52107;DHT22;38105;52.968;5.974;2023-01-28T08:15:37;1.40;99.90
52107;DHT22;38105;52.968;5.974;2023-01-28T08:18:04;1.80;99.90
52107;DHT22;38105;52.968;5.974;2023-01-28T08:20:30;2.50;99.90
52107;DHT22;38105;52.968;5.974;2023-01-28T08:23:16;3.20;99.90
52107;DHT22;38105;52.968;5.974;2023-01-28T08:25:42;4.40;99.90
52107;DHT22;38105;52.968;5.974;2023-01-28T08:28:09;5.70;99.90
52107;DHT22;38105;52.968;5.974;2023-01-28T08:30:36;7.00;99.90
52107;DHT22;38105;52.968;5.974;2023-01-28T08:33:04;8.00;99.90
52107;DHT22;38105;52.968;5.974;2023-01-28T08:35:30;9.10;99.90
52107;DHT22;38105;52.968;5.974;2023-01-28T08:37:58;9.90;99.90
52107;DHT22;38105;52.968;5.974;2023-01-28T08:40:25;10.60;99.90
52107;DHT22;38105;52.968;5.974;2023-01-28T08:42:52;11.30;99.90
52107;DHT22;38105;52.968;5.974;2023-01-28T08:45:19;11.50;99.90
52107;DHT22;38105;52.968;5.974;2023-01-28T08:48:17;12.00;99.90
52107;DHT22;38105;52.968;5.974;2023-01-28T08:50:43;12.60;99.90
52107;DHT22;38105;52.968;5.974;2023-01-28T08:53:17;13.40;99.90
52107;DHT22;38105;52.968;5.974;2023-01-28T08:55:43;13.90;99.90
52107;DHT22;38105;52.968;5.974;2023-01-28T08:58:14;13.50;99.90
52107;DHT22;38105;52.968;5.974;2023-01-28T09:00:41;12.60;99.90
52107;DHT22;38105;52.968;5.974;2023-01-28T09:03:07;12.50;99.90
52107;DHT22;38105;52.968;5.974;2023-01-28T09:05:34;12.70;99.90
52107;DHT22;38105;52.968;5.974;2023-01-28T09:08:01;12.30;99.90
52107;DHT22;38105;52.968;5.974;2023-01-28T09:10:27;12.10;99.90
52107;DHT22;38105;52.968;5.974;2023-01-28T09:12:53;12.40;99.90
52107;DHT22;38105;52.968;5.974;2023-01-28T09:15:19;13.30;99.90
52107;DHT22;38105;52.968;5.974;2023-01-28T09:17:44;13.80;99.90
52107;DHT22;38105;52.968;5.974;2023-01-28T09:20:11;14.40;99.90
52107;DHT22;38105;52.968;5.974;2023-01-28T09:22:37;14.70;99.90
52107;DHT22;38105;52.968;5.974;2023-01-28T09:25:03;15.20;99.90
52107;DHT22;38105;52.968;5.974;2023-01-28T09:27:29;15.50;99.10
52107;DHT22;38105;52.968;5.974;2023-01-28T09:29:54;15.80;98.10
52107;DHT22;38105;52.968;5.974;2023-01-28T09:32:20;15.60;97.80
52107;DHT22;38105;52.968;5.974;2023-01-28T09:34:46;15.30;97.30
52107;DHT22;38105;52.968;5.974;2023-01-28T09:37:11;15.10;97.80
52107;DHT22;38105;52.968;5.974;2023-01-28T09:39:37;14.30;98.60
52107;DHT22;38105;52.968;5.974;2023-01-28T09:45:11;11.80;99.60
52107;DHT22;38105;52.968;5.974;2023-01-28T09:47:50;11.10;99.90
52107;DHT22;38105;52.968;5.974;2023-01-28T09:50:34;10.40;99.90
52107;DHT22;38105;52.968;5.974;2023-01-28T09:53:05;9.80;99.90
52107;DHT22;38105;52.968;5.974;2023-01-28T09:55:45;9.40;99.90
52107;DHT22;38105;52.968;5.974;2023-01-28T09:58:13;9.20;99.90
52107;DHT22;38105;52.968;5.974;2023-01-28T10:03:53;8.90;99.90
52107;DHT22;38105;52.968;5.974;2023-01-28T10:09:18;8.80;99.90
52107;DHT22;38105;52.968;5.974;2023-01-28T10:12:44;8.70;99.90
52107;DHT22;38105;52.968;5.974;2023-01-28T10:17:55;8.50;99.90
52107;DHT22;38105;52.968;5.974;2023-01-28T10:20:32;8.30;99.90
52107;DHT22;38105;52.968;5.974;2023-01-28T10:23:09;8.00;99.90
52107;DHT22;38105;52.968;5.974;2023-01-28T10:25:40;7.60;99.90
52107;DHT22;38105;52.968;5.974;2023-01-28T10:28:29;7.40;99.90
52107;DHT22;38105;52.968;5.974;2023-01-28T10:30:55;7.50;99.90
52107;DHT22;38105;52.968;5.974;2023-01-28T10:33:22;7.40;99.90
52107;DHT22;38105;52.968;5.974;2023-01-28T10:35:49;7.50;99.90
52107;DHT22;38105;52.968;5.974;2023-01-28T10:38:20;7.40;99.90
52107;DHT22;38105;52.968;5.974;2023-01-28T10:40:46;7.50;99.90
52107;DHT22;38105;52.968;5.974;2023-01-28T10:43:14;7.70;99.90
52107;DHT22;38105;52.968;5.974;2023-01-28T10:46:08;7.80;99.90
52107;DHT22;38105;52.968;5.974;2023-01-28T10:51:17;8.10;99.90
52107;DHT22;38105;52.968;5.974;2023-01-28T10:53:45;8.20;99.90
52107;DHT22;38105;52.968;5.974;2023-01-28T10:56:14;8.10;99.90
52107;DHT22;38105;52.968;5.974;2023-01-28T10:58:56;7.90;99.90
52107;DHT22;38105;52.968;5.974;2023-01-28T11:01:23;7.80;99.90
52107;DHT22;38105;52.968;5.974;2023-01-28T11:03:56;7.70;99.90
52107;DHT22;38105;52.968;5.974;2023-01-28T11:06:27;7.70;99.90
52107;DHT22;38105;52.968;5.974;2023-01-28T11:08:53;7.50;99.90
52107;DHT22;38105;52.968;5.974;2023-01-28T11:11:26;7.60;99.90
52107;DHT22;38105;52.968;5.974;2023-01-28T11:13:52;7.50;99.90
52107;DHT22;38105;52.968;5.974;2023-01-28T11:16:23;7.50;99.90
52107;DHT22;38105;52.968;5.974;2023-01-28T11:18:52;7.50;99.90
52107;DHT22;38105;52.968;5.974;2023-01-28T11:21:26;7.30;99.90
52107;DHT22;38105;52.968;5.974;2023-01-28T11:24:12;7.30;99.90
52107;DHT22;38105;52.968;5.974;2023-01-28T11:26:43;7.30;99.90
52107;DHT22;38105;52.968;5.974;2023-01-28T11:29:29;7.20;99.90
52107;DHT22;38105;52.968;5.974;2023-01-28T11:31:56;7.20;99.90
52107;DHT22;38105;52.968;5.974;2023-01-28T11:34:26;7.10;99.90
52107;DHT22;38105;52.968;5.974;2023-01-28T11:37:00;7.00;99.90
52107;DHT22;38105;52.968;5.974;2023-01-28T11:39:27;7.00;99.90
52107;DHT22;38105;52.968;5.974;2023-01-28T11:42:02;6.90;99.90
52107;DHT22;38105;52.968;5.974;2023-01-28T11:44:28;6.90;99.90
52107;DHT22;38105;52.968;5.974;2023-01-28T11:47:11;6.80;99.90
52107;DHT22;38105;52.968;5.974;2023-01-28T11:50:21;6.90;99.90
52107;DHT22;38105;52.968;5.974;2023-01-28T11:52:57;6.90;99.90
52107;DHT22;38105;52.968;5.974;2023-01-28T12:01:06;6.80;99.90
52107;DHT22;38105;52.968;5.974;2023-01-28T12:15:30;6.90;99.90
52107;DHT22;38105;52.968;5.974;2023-01-28T12:26:01;7.10;99.90
52107;DHT22;38105;52.968;5.974;2023-01-28T12:34:37;6.80;99.90
52107;DHT22;38105;52.968;5.974;2023-01-28T12:37:14;6.60;99.90
52107;DHT22;38105;52.968;5.974;2023-01-28T12:45:22;6.30;99.90
52107;DHT22;38105;52.968;5.974;2023-01-28T12:48:01;6.30;99.90
52107;DHT22;38105;52.968;5.974;2023-01-28T12:50:35;6.40;99.90
52107;DHT22;38105;52.968;5.974;2023-01-28T12:53:20;6.40;99.90
52107;DHT22;38105;52.968;5.974;2023-01-28T12:55:56;6.40;99.90
52107;DHT22;38105;52.968;5.974;2023-01-28T13:01:12;6.40;99.90
52107;DHT22;38105;52.968;5.974;2023-01-28T13:03:44;6.30;99.90
52107;DHT22;38105;52.968;5.974;2023-01-28T13:06:22;6.30;99.90
52107;DHT22;38105;52.968;5.974;2023-01-28T13:08:57;6.40;99.90
52107;DHT22;38105;52.968;5.974;2023-01-28T13:11:32;6.60;99.90
52107;DHT22;38105;52.968;5.974;2023-01-28T13:13:58;6.60;99.90
52107;DHT22;38105;52.968;5.974;2023-01-28T13:16:24;6.60;99.90
52107;DHT22;38105;52.968;5.974;2023-01-28T13:18:50;6.50;99.90
52107;DHT22;38105;52.968;5.974;2023-01-28T13:24:17;6.50;99.90
52107;DHT22;38105;52.968;5.974;2023-01-28T13:26:52;6.50;99.90
52107;DHT22;38105;52.968;5.974;2023-01-28T13:29:30;6.50;99.90
52107;DHT22;38105;52.968;5.974;2023-01-28T13:32:01;6.50;99.90
52107;DHT22;38105;52.968;5.974;2023-01-28T13:37:02;6.30;99.90
52107;DHT22;38105;52.968;5.974;2023-01-28T13:39:29;6.40;99.90
52107;DHT22;38105;52.968;5.974;2023-01-28T13:42:10;6.40;99.90
52107;DHT22;38105;52.968;5.974;2023-01-28T13:44:45;6.30;99.90
52107;DHT22;38105;52.968;5.974;2023-01-28T13:47:17;6.30;99.90
52107;DHT22;38105;52.968;5.974;2023-01-28T13:49:47;6.20;99.90
52107;DHT22;38105;52.968;5.974;2023-01-28T13:52:25;6.30;99.90
52107;DHT22;38105;52.968;5.974;2023-01-28T13:55:05;6.20;99.90
52107;DHT22;38105;52.968;5.974;2023-01-28T14:00:28;6.30;99.90
52107;DHT22;38105;52.968;5.974;2023-01-28T14:08:53;6.10;99.90
52107;DHT22;38105;52.968;5.974;2023-01-28T14:11:52;6.10;99.90
52107;DHT22;38105;52.968;5.974;2023-01-28T14:14:27;6.00;99.90
52107;DHT22;38105;52.968;5.974;2023-01-28T14:19:56;6.00;99.90
52107;DHT22;38105;52.968;5.974;2023-01-28T14:22:22;5.90;99.90
52107;DHT22;38105;52.968;5.974;2023-01-28T14:24:48;5.90;99.90
52107;DHT22;38105;52.968;5.974;2023-01-28T14:32:32;5.90;99.90
52107;DHT22;38105;52.968;5.974;2023-01-28T14:35:04;5.90;99.90
52107;DHT22;38105;52.968;5.974;2023-01-28T14:37:32;5.90;99.90
52107;DHT22;38105;52.968;5.974;2023-01-28T14:40:00;5.90;99.90
52107;DHT22;38105;52.968;5.974;2023-01-28T14:42:31;5.90;99.90
52107;DHT22;38105;52.968;5.974;2023-01-28T14:48:20;5.90;99.90
52107;DHT22;38105;52.968;5.974;2023-01-28T14:57:01;5.80;99.90
52107;DHT22;38105;52.968;5.974;2023-01-28T14:59:53;5.70;99.90
52107;DHT22;38105;52.968;5.974;2023-01-28T15:02:22;5.70;99.90
52107;DHT22;38105;52.968;5.974;2023-01-28T15:04:48;5.70;99.90
52107;DHT22;38105;52.968;5.974;2023-01-28T15:07:25;5.70;99.90
52107;DHT22;38105;52.968;5.974;2023-01-28T15:10:06;5.70;99.90
52107;DHT22;38105;52.968;5.974;2023-01-28T15:12:38;5.70;99.90
52107;DHT22;38105;52.968;5.974;2023-01-28T15:15:27;5.70;99.90
52107;DHT22;38105;52.968;5.974;2023-01-28T15:17:55;5.60;99.90
52107;DHT22;38105;52.968;5.974;2023-01-28T15:20:23;5.60;99.90
52107;DHT22;38105;52.968;5.974;2023-01-28T15:22:51;5.50;99.90
52107;DHT22;38105;52.968;5.974;2023-01-28T15:25:19;5.50;99.90
52107;DHT22;38105;52.968;5.974;2023-01-28T15:27:46;5.60;99.90
52107;DHT22;38105;52.968;5.974;2023-01-28T15:30:23;5.60;99.90
52107;DHT22;38105;52.968;5.974;2023-01-28T15:33:01;5.50;99.90
52107;DHT22;38105;52.968;5.974;2023-01-28T15:35:27;5.50;99.90
52107;DHT22;38105;52.968;5.974;2023-01-28T15:37:52;5.50;99.90
52107;DHT22;38105;52.968;5.974;2023-01-28T15:40:20;5.40;99.90
52107;DHT22;38105;52.968;5.974;2023-01-28T15:42:48;5.40;99.90
52107;DHT22;38105;52.968;5.974;2023-01-28T15:45:19;5.40;99.90
52107;DHT22;38105;52.968;5.974;2023-01-28T15:47:46;5.40;99.90
52107;DHT22;38105;52.968;5.974;2023-01-28T15:50:23;5.50;99.90
52107;DHT22;38105;52.968;5.974;2023-01-28T15:52:51;5.50;99.90
52107;DHT22;38105;52.968;5.974;2023-01-28T15:55:37;5.40;99.90
52107;DHT22;38105;52.968;5.974;2023-01-28T15:58:16;5.40;99.90
52107;DHT22;38105;52.968;5.974;2023-01-28T16:00:46;5.30;99.90
52107;DHT22;38105;52.968;5.974;2023-01-28T16:03:21;5.30;99.90
52107;DHT22;38105;52.968;5.974;2023-01-28T16:06:04;5.30;99.90
52107;DHT22;38105;52.968;5.974;2023-01-28T16:08:38;5.20;99.90
52107;DHT22;38105;52.968;5.974;2023-01-28T16:11:06;5.20;99.90
52107;DHT22;38105;52.968;5.974;2023-01-28T16:13:32;5.10;99.90
52107;DHT22;38105;52.968;5.974;2023-01-28T16:16:00;5.10;99.90
52107;DHT22;38105;52.968;5.974;2023-01-28T16:18:41;5.10;99.90
52107;DHT22;38105;52.968;5.974;2023-01-28T16:21:11;5.00;99.90
52107;DHT22;38105;52.968;5.974;2023-01-28T16:23:37;4.80;99.90
52107;DHT22;38105;52.968;5.974;2023-01-28T16:26:17;4.80;99.90
52107;DHT22;38105;52.968;5.974;2023-01-28T16:28:43;4.70;99.90
52107;DHT22;38105;52.968;5.974;2023-01-28T16:31:10;4.60;99.90
52107;DHT22;38105;52.968;5.974;2023-01-28T16:33:35;4.60;99.90
52107;DHT22;38105;52.968;5.974;2023-01-28T16:36:01;4.60;99.90
52107;DHT22;38105;52.968;5.974;2023-01-28T16:38:27;4.40;99.90
52107;DHT22;38105;52.968;5.974;2023-01-28T16:40:52;4.50;99.90
52107;DHT22;38105;52.968;5.974;2023-01-28T16:43:18;4.50;99.90
52107;DHT22;38105;52.968;5.974;2023-01-28T16:45:44;4.50;99.90
52107;DHT22;38105;52.968;5.974;2023-01-28T16:48:11;4.40;99.90
52107;DHT22;38105;52.968;5.974;2023-01-28T16:50:41;4.40;99.90
52107;DHT22;38105;52.968;5.974;2023-01-28T16:53:18;4.40;99.90
52107;DHT22;38105;52.968;5.974;2023-01-28T16:55:43;4.40;99.90
52107;DHT22;38105;52.968;5.974;2023-01-28T16:58:09;4.40;99.90
52107;DHT22;38105;52.968;5.974;2023-01-28T17:00:35;4.40;99.90
52107;DHT22;38105;52.968;5.974;2023-01-28T17:03:01;4.40;99.90
52107;DHT22;38105;52.968;5.974;2023-01-28T17:05:26;4.40;99.90
52107;DHT22;38105;52.968;5.974;2023-01-28T17:07:52;4.40;99.90
52107;DHT22;38105;52.968;5.974;2023-01-28T17:10:20;4.40;99.90
52107;DHT22;38105;52.968;5.974;2023-01-28T17:12:49;4.40;99.90
52107;DHT22;38105;52.968;5.974;2023-01-28T17:15:15;4.40;99.90
52107;DHT22;38105;52.968;5.974;2023-01-28T17:17:40;4.40;99.90
52107;DHT22;38105;52.968;5.974;2023-01-28T17:20:07;4.40;99.90
52107;DHT22;38105;52.968;5.974;2023-01-28T17:22:33;4.40;99.90
52107;DHT22;38105;52.968;5.974;2023-01-28T17:24:58;4.40;99.90
52107;DHT22;38105;52.968;5.974;2023-01-28T17:27:24;4.50;99.90
52107;DHT22;38105;52.968;5.974;2023-01-28T17:29:51;4.50;99.90
52107;DHT22;38105;52.968;5.974;2023-01-28T17:32:16;4.40;99.90
52107;DHT22;38105;52.968;5.974;2023-01-28T17:34:42;4.40;99.90
52107;DHT22;38105;52.968;5.974;2023-01-28T17:37:08;4.50;99.90
52107;DHT22;38105;52.968;5.974;2023-01-28T17:39:33;4.40;99.90
52107;DHT22;38105;52.968;5.974;2023-01-28T17:41:59;4.40;99.90
52107;DHT22;38105;52.968;5.974;2023-01-28T17:44:25;4.50;99.90
52107;DHT22;38105;52.968;5.974;2023-01-28T17:46:50;4.50;99.90
52107;DHT22;38105;52.968;5.974;2023-01-28T17:49:16;4.50;99.90